Time;durP1;ratioP1;P1;durP2;ratioP2;P2;SDS_P1;SDS_P2;PMS_P1;PMS_P2;Temp;Humidity;BMP_temperature;BMP_pressure;BME280_temperature;BME280_humidity;BME280_pressure;Samples;Min_cycle;Max_cycle;Signal;HPM_P1;HPM_P2
2021/08/28 00:01:10;;;;;;;10.38;4.70;;;;;;;;;;5095954;28;20025;-79
2021/08/28 00:03:36;;;;;;;8.80;3.85;;;;;;;;;;5095340;28;20146;-79
2021/08/28 00:06:02;;;;;;;7.85;3.65;;;;;;;;;;5095339;28;20020;-79
2021/08/28 00:08:28;;;;;;;10.52;4.80;;;;;;;;;;5095571;28;20024;-79
2021/08/28 00:10:55;;;;;;;7.28;4.15;;;;;;;;;;5095164;28;20078;-78
2021/08/28 00:13:21;;;;;;;8.48;4.25;;;;;;;;;;5095789;28;20027;-79
2021/08/28 00:15:47;;;;;;;11.38;3.40;;;;;;;;;;5076939;28;20024;-80
2021/08/28 00:18:13;;;;;;;7.45;3.90;;;;;;;;;;5094910;28;20079;-80
2021/08/28 00:20:39;;;;;;;6.70;3.63;;;;;;;;;;5095385;28;20020;-80
2021/08/28 00:23:06;;;;;;;7.75;3.70;;;;;;;;;;5095341;28;20067;-78
2021/08/28 00:25:32;;;;;;;8.00;3.88;;;;;;;;;;5095020;28;20030;-79
2021/08/28 00:27:58;;;;;;;10.32;4.28;;;;;;;;;;5095483;28;20024;-78
2021/08/28 00:30:24;;;;;;;8.65;3.85;;;;;;;;;;5094895;28;20396;-78
2021/08/28 00:32:50;;;;;;;8.93;4.00;;;;;;;;;;5095031;28;20024;-79
2021/08/28 00:35:16;;;;;;;8.50;3.72;;;;;;;;;;5076635;28;20024;-80
2021/08/28 00:37:42;;;;;;;10.48;4.38;;;;;;;;;;5094742;28;20392;-78
2021/08/28 00:40:09;;;;;;;7.57;3.80;;;;;;;;;;5094731;28;20027;-79
2021/08/28 00:42:51;;;;;;;8.23;3.60;;;;;;;;;;5094653;28;20032;-80
2021/08/28 00:45:17;;;;;;;7.43;3.90;;;;;;;;;;5095199;28;20446;-80
2021/08/28 00:47:51;;;;;;;7.88;4.38;;;;;;;;;;5094867;28;20079;-80
2021/08/28 00:50:17;;;;;;;8.50;4.40;;;;;;;;;;5094743;28;20423;-79
2021/08/28 00:52:43;;;;;;;7.88;3.67;;;;;;;;;;5094354;28;20111;-78
2021/08/28 00:55:09;;;;;;;10.38;3.92;;;;;;;;;;5094413;28;20020;-78
2021/08/28 00:57:35;;;;;;;7.72;4.32;;;;;;;;;;5094611;28;20507;-80
2021/08/28 01:00:01;;;;;;;9.32;4.40;;;;;;;;;;5094320;28;20020;-79
2021/08/28 01:02:27;;;;;;;7.30;3.40;;;;;;;;;;5094538;28;20059;-79
2021/08/28 01:05:07;;;;;;;7.93;4.07;;;;;;;;;;5093903;28;20098;-79
2021/08/28 01:07:37;;;;;;;8.70;4.07;;;;;;;;;;5094517;28;20032;-79
2021/08/28 01:10:03;;;;;;;9.40;4.32;;;;;;;;;;5094456;28;20115;-79
2021/08/28 01:12:31;;;;;;;9.63;4.90;;;;;;;;;;5094015;28;20028;-79
2021/08/28 01:15:02;;;;;;;8.20;3.95;;;;;;;;;;5093992;28;20020;-80
2021/08/28 01:17:28;;;;;;;9.15;4.15;;;;;;;;;;5093792;28;20044;-80
2021/08/28 01:20:03;;;;;;;9.23;4.22;;;;;;;;;;5094290;28;20074;-80
2021/08/28 01:22:30;;;;;;;8.32;4.25;;;;;;;;;;5093917;28;20594;-80
2021/08/28 01:24:57;;;;;;;8.45;3.92;;;;;;;;;;5093870;28;20024;-79
2021/08/28 01:27:42;;;;;;;5.88;3.42;;;;;;;;;;5075676;28;20463;-80
2021/08/28 01:30:09;;;;;;;6.68;3.42;;;;;;;;;;5094134;28;20483;-80
2021/08/28 01:32:35;;;;;;;6.32;3.33;;;;;;;;;;5093712;28;20486;-78
2021/08/28 01:35:02;;;;;;;8.65;3.67;;;;;;;;;;5093701;28;20059;-79
2021/08/28 01:37:28;;;;;;;7.82;3.53;;;;;;;;;;5075535;28;20077;-79
2021/08/28 01:39:56;;;;;;;7.25;3.92;;;;;;;;;;5093904;28;20366;-80
2021/08/28 01:42:23;;;;;;;7.97;3.95;;;;;;;;;;5093607;28;20024;-79
2021/08/28 01:44:51;;;;;;;6.13;3.42;;;;;;;;;;5093591;28;20024;-78
2021/08/28 01:47:18;;;;;;;4.55;3.05;;;;;;;;;;5093632;28;20024;-79
2021/08/28 01:49:46;;;;;;;6.95;3.67;;;;;;;;;;5093552;28;20035;-80
2021/08/28 01:52:12;;;;;;;5.00;3.08;;;;;;;;;;5093460;28;20024;-79
2021/08/28 01:54:38;;;;;;;7.50;3.40;;;;;;;;;;5075315;28;20016;-80
2021/08/28 01:57:05;;;;;;;6.13;3.10;;;;;;;;;;5075260;28;20077;-80
2021/08/28 01:59:31;;;;;;;6.72;3.30;;;;;;;;;;5075224;28;20473;-80
2021/08/28 02:01:57;;;;;;;7.25;3.60;;;;;;;;;;5093342;28;20468;-80
2021/08/28 02:04:23;;;;;;;9.50;4.00;;;;;;;;;;5075191;28;20020;-80
2021/08/28 02:06:49;;;;;;;6.38;3.50;;;;;;;;;;5093313;28;20472;-79
2021/08/28 02:09:32;;;;;;;6.07;3.33;;;;;;;;;;5075177;28;20031;-80
2021/08/28 02:12:04;;;;;;;5.90;3.38;;;;;;;;;;5074778;28;20508;-79
2021/08/28 02:14:34;;;;;;;8.15;4.07;;;;;;;;;;5093248;28;20063;-79
2021/08/28 02:17:00;;;;;;;10.68;4.18;;;;;;;;;;5095716;28;20031;-79
2021/08/28 02:19:29;;;;;;;11.85;4.40;;;;;;;;;;5097239;28;20051;-79
2021/08/28 02:21:57;;;;;;;10.75;4.60;;;;;;;;;;5097360;28;20035;-78
2021/08/28 02:24:26;;;;;;;11.02;4.65;;;;;;;;;;5097879;28;20028;-80
2021/08/28 02:27:14;;;;;;;9.37;4.47;;;;;;;;;;5097335;28;20052;-79
2021/08/28 02:29:43;;;;;;;8.50;4.00;;;;;;;;;;5097788;28;20250;-79
2021/08/28 02:32:11;;;;;;;8.85;4.28;;;;;;;;;;5097101;28;20101;-77
2021/08/28 02:34:38;;;;;;;10.65;5.03;;;;;;;;;;5097389;28;20482;-80
2021/08/28 02:37:04;;;;;;;7.20;3.88;;;;;;;;;;5097390;28;20533;-80
2021/08/28 02:39:30;;;;;;;9.40;4.57;;;;;;;;;;5097332;28;20388;-79
2021/08/28 02:41:58;;;;;;;8.52;4.07;;;;;;;;;;5097216;28;20024;-79
2021/08/28 02:44:25;;;;;;;13.15;5.00;;;;;;;;;;5096932;28;20028;-80
2021/08/28 02:46:52;;;;;;;8.05;4.25;;;;;;;;;;5097439;28;20494;-79
2021/08/28 02:49:19;;;;;;;8.07;4.25;;;;;;;;;;5097137;28;20067;-79
2021/08/28 02:51:45;;;;;;;8.23;3.70;;;;;;;;;;5097019;28;20027;-79
2021/08/28 02:54:13;;;;;;;4.90;3.40;;;;;;;;;;5097064;28;20028;-78
2021/08/28 02:56:40;;;;;;;6.68;3.95;;;;;;;;;;5096711;28;20024;-80
2021/08/28 02:59:06;;;;;;;7.90;4.15;;;;;;;;;;5096640;28;20518;-79
2021/08/28 03:01:34;;;;;;;9.43;4.50;;;;;;;;;;5096585;28;20024;-79
2021/08/28 03:04:00;;;;;;;8.20;4.80;;;;;;;;;;5096546;28;20028;-80
2021/08/28 03:06:29;;;;;;;8.63;4.35;;;;;;;;;;5097053;28;20038;-79
2021/08/28 03:08:56;;;;;;;7.13;4.67;;;;;;;;;;5096502;28;20145;-78
2021/08/28 03:11:22;;;;;;;8.43;4.40;;;;;;;;;;5096325;28;20059;-78
2021/08/28 03:13:48;;;;;;;6.15;3.38;;;;;;;;;;5096362;28;20032;-79
2021/08/28 03:16:15;;;;;;;7.55;4.63;;;;;;;;;;5096113;28;20032;-77
2021/08/28 03:18:43;;;;;;;7.70;4.65;;;;;;;;;;5096092;28;20119;-80
2021/08/28 03:21:12;;;;;;;6.82;4.28;;;;;;;;;;5096234;28;20030;-77
2021/08/28 03:23:39;;;;;;;6.45;4.05;;;;;;;;;;5078051;28;20056;-79
2021/08/28 03:26:05;;;;;;;6.45;4.20;;;;;;;;;;5096145;28;20032;-79
2021/08/28 03:28:34;;;;;;;5.88;3.85;;;;;;;;;;5096541;28;20102;-80
2021/08/28 03:31:00;;;;;;;6.65;4.25;;;;;;;;;;5096282;28;20025;-79
2021/08/28 03:33:26;;;;;;;7.18;4.43;;;;;;;;;;5077858;28;20380;-79
2021/08/28 03:35:52;;;;;;;8.75;4.50;;;;;;;;;;5095950;28;20026;-77
2021/08/28 03:38:18;;;;;;;6.95;4.25;;;;;;;;;;5095921;28;20048;-78
2021/08/28 03:40:46;;;;;;;8.38;4.88;;;;;;;;;;5077724;28;20507;-79
2021/08/28 03:43:12;;;;;;;7.68;4.80;;;;;;;;;;5095867;28;20020;-80
2021/08/28 03:45:38;;;;;;;8.80;4.82;;;;;;;;;;5095762;28;20020;-77
2021/08/28 03:48:04;;;;;;;8.45;5.22;;;;;;;;;;5096018;28;20028;-80
2021/08/28 03:50:31;;;;;;;9.40;5.10;;;;;;;;;;5095973;28;20478;-77
2021/08/28 03:52:56;;;;;;;8.45;4.80;;;;;;;;;;5095564;28;20476;-79
2021/08/28 03:55:23;;;;;;;9.70;4.78;;;;;;;;;;5095584;28;20027;-78
2021/08/28 03:57:49;;;;;;;9.05;4.35;;;;;;;;;;5095795;28;20020;-80
2021/08/28 04:00:15;;;;;;;8.25;4.38;;;;;;;;;;5095513;28;20114;-78
2021/08/28 04:02:42;;;;;;;10.02;4.80;;;;;;;;;;5095483;28;20102;-80
2021/08/28 04:05:08;;;;;;;9.95;5.10;;;;;;;;;;5077309;28;20035;-79
2021/08/28 04:07:38;;;;;;;7.13;3.90;;;;;;;;;;5095432;28;20055;-79
2021/08/28 04:10:04;;;;;;;9.73;5.22;;;;;;;;;;5095385;28;20024;-79
2021/08/28 04:12:30;;;;;;;8.73;4.63;;;;;;;;;;5095752;28;20024;-79
2021/08/28 04:14:56;;;;;;;10.27;4.90;;;;;;;;;;5095138;28;20028;-78
2021/08/28 04:17:22;;;;;;;8.77;4.97;;;;;;;;;;5094985;28;20095;-79
2021/08/28 04:19:48;;;;;;;10.15;4.63;;;;;;;;;;5095455;28;20059;-78
2021/08/28 04:22:14;;;;;;;10.70;5.10;;;;;;;;;;5095059;28;20103;-78
2021/08/28 04:24:40;;;;;;;8.77;4.50;;;;;;;;;;5095014;28;20028;-78
2021/08/28 04:27:07;;;;;;;10.90;4.90;;;;;;;;;;5094945;28;20472;-79
2021/08/28 04:29:33;;;;;;;10.70;5.07;;;;;;;;;;5095027;28;20031;-78
2021/08/28 04:31:59;;;;;;;11.32;4.75;;;;;;;;;;5076638;28;20028;-80
2021/08/28 04:34:25;;;;;;;9.90;4.50;;;;;;;;;;5094835;28;20491;-80
2021/08/28 04:36:51;;;;;;;12.57;5.40;;;;;;;;;;5094785;28;20016;-79
2021/08/28 04:39:18;;;;;;;9.63;5.10;;;;;;;;;;5094093;28;20031;-79
2021/08/28 04:41:44;;;;;;;9.70;5.15;;;;;;;;;;5094697;28;20028;-79
2021/08/28 04:44:10;;;;;;;10.60;5.35;;;;;;;;;;5095198;28;20028;-80
2021/08/28 04:46:36;;;;;;;10.02;4.72;;;;;;;;;;5094579;28;20032;-80
2021/08/28 04:49:02;;;;;;;9.80;4.32;;;;;;;;;;5094859;28;20031;-79
2021/08/28 04:51:28;;;;;;;10.60;4.53;;;;;;;;;;5094389;28;20024;-80
2021/08/28 04:53:54;;;;;;;8.90;3.78;;;;;;;;;;5094718;28;20511;-79
2021/08/28 04:56:20;;;;;;;10.88;4.68;;;;;;;;;;5094421;28;20024;-80
2021/08/28 04:58:46;;;;;;;11.88;4.50;;;;;;;;;;5076176;28;20031;-79
2021/08/28 05:01:12;;;;;;;9.70;4.68;;;;;;;;;;5094307;28;20537;-79
2021/08/28 05:03:38;;;;;;;13.18;5.10;;;;;;;;;;5094234;28;20073;-79
2021/08/28 05:06:04;;;;;;;15.77;5.15;;;;;;;;;;5094243;28;20020;-79
2021/08/28 05:08:30;;;;;;;11.77;5.55;;;;;;;;;;5094181;28;20077;-80
2021/08/28 05:10:56;;;;;;;10.68;4.72;;;;;;;;;;5094317;28;20422;-80
2021/08/28 05:13:22;;;;;;;12.27;5.25;;;;;;;;;;5094404;28;20070;-80
2021/08/28 05:15:48;;;;;;;11.93;5.20;;;;;;;;;;5094000;28;20020;-79
2021/08/28 05:18:14;;;;;;;10.00;5.22;;;;;;;;;;5093790;28;20413;-79
2021/08/28 05:20:40;;;;;;;10.68;4.80;;;;;;;;;;5093942;28;20016;-79
2021/08/28 05:23:06;;;;;;;9.23;4.82;;;;;;;;;;5093938;28;20031;-78
2021/08/28 05:25:32;;;;;;;10.23;5.15;;;;;;;;;;5093892;28;20091;-81
2021/08/28 05:27:58;;;;;;;8.75;4.55;;;;;;;;;;5094387;28;20028;-80
2021/08/28 05:30:24;;;;;;;8.48;4.75;;;;;;;;;;5093839;28;20162;-80
2021/08/28 05:32:50;;;;;;;9.52;4.88;;;;;;;;;;5075523;28;20024;-79
2021/08/28 05:35:16;;;;;;;8.10;4.47;;;;;;;;;;5075608;28;20024;-78
2021/08/28 05:37:42;;;;;;;8.75;4.63;;;;;;;;;;5075540;28;20046;-79
2021/08/28 05:40:09;;;;;;;9.98;4.70;;;;;;;;;;5093636;28;20095;-79
2021/08/28 05:42:35;;;;;;;9.88;4.90;;;;;;;;;;5093651;28;20020;-79
2021/08/28 05:45:01;;;;;;;10.75;5.43;;;;;;;;;;5093830;28;20047;-79
2021/08/28 05:47:27;;;;;;;10.05;5.30;;;;;;;;;;5093577;28;20058;-78
2021/08/28 05:49:53;;;;;;;9.95;5.15;;;;;;;;;;5093233;28;20028;-79
2021/08/28 05:52:19;;;;;;;10.20;4.88;;;;;;;;;;5093086;28;20059;-79
2021/08/28 05:54:45;;;;;;;9.25;4.35;;;;;;;;;;5093739;28;20099;-79
2021/08/28 05:57:11;;;;;;;11.35;4.72;;;;;;;;;;5093730;28;20103;-79
2021/08/28 05:59:37;;;;;;;8.30;4.50;;;;;;;;;;5093677;28;20024;-79
2021/08/28 06:02:04;;;;;;;7.68;4.20;;;;;;;;;;5075309;28;20070;-80
2021/08/28 06:04:30;;;;;;;11.45;4.60;;;;;;;;;;5075271;28;20062;-78
2021/08/28 06:06:56;;;;;;;6.47;4.05;;;;;;;;;;5093347;28;20028;-78
2021/08/28 06:09:22;;;;;;;8.43;4.18;;;;;;;;;;5093321;28;20129;-79
2021/08/28 06:11:48;;;;;;;7.28;4.15;;;;;;;;;;5075143;28;20119;-78
2021/08/28 06:14:14;;;;;;;7.55;4.35;;;;;;;;;;5093257;28;20020;-78
2021/08/28 06:16:40;;;;;;;6.93;3.92;;;;;;;;;;5093430;28;20106;-79
2021/08/28 06:19:06;;;;;;;6.75;4.25;;;;;;;;;;5092811;28;20048;-79
2021/08/28 06:21:33;;;;;;;6.38;3.47;;;;;;;;;;5093478;28;20032;-78
2021/08/28 06:24:00;;;;;;;7.40;3.80;;;;;;;;;;5093205;28;20016;-80
2021/08/28 06:26:26;;;;;;;6.30;4.35;;;;;;;;;;5093170;28;20103;-79
2021/08/28 06:28:52;;;;;;;6.50;3.85;;;;;;;;;;5074992;28;20052;-78
2021/08/28 06:31:18;;;;;;;9.68;3.92;;;;;;;;;;5074940;28;20035;-79
2021/08/28 06:33:44;;;;;;;6.40;3.65;;;;;;;;;;5093130;28;20054;-78
2021/08/28 06:36:10;;;;;;;6.35;4.05;;;;;;;;;;5093071;28;20086;-79
2021/08/28 06:38:36;;;;;;;5.13;3.58;;;;;;;;;;5093069;28;20031;-79
2021/08/28 06:41:02;;;;;;;7.30;4.18;;;;;;;;;;5093313;28;20028;-78
2021/08/28 06:43:29;;;;;;;7.35;4.22;;;;;;;;;;5093035;28;20028;-80
2021/08/28 06:45:55;;;;;;;8.60;4.97;;;;;;;;;;5074899;28;20115;-79
2021/08/28 06:48:21;;;;;;;8.63;4.60;;;;;;;;;;5093259;28;20452;-78
2021/08/28 06:50:47;;;;;;;7.68;4.18;;;;;;;;;;5093067;28;20035;-79
2021/08/28 06:53:14;;;;;;;11.23;4.40;;;;;;;;;;5093187;28;20047;-79
2021/08/28 06:55:40;;;;;;;9.02;4.18;;;;;;;;;;5092940;28;20020;-79
2021/08/28 06:58:06;;;;;;;6.68;3.88;;;;;;;;;;5092893;28;20069;-79
2021/08/28 07:00:32;;;;;;;6.15;3.70;;;;;;;;;;5093135;28;20102;-79
2021/08/28 07:02:58;;;;;;;8.63;4.93;;;;;;;;;;5095332;28;20101;-80
2021/08/28 07:05:24;;;;;;;7.82;3.65;;;;;;;;;;5096532;28;20541;-78
2021/08/28 07:07:50;;;;;;;9.45;4.82;;;;;;;;;;5096535;28;20411;-80
2021/08/28 07:10:16;;;;;;;8.48;3.97;;;;;;;;;;5078280;28;20032;-79
2021/08/28 07:12:42;;;;;;;8.43;4.05;;;;;;;;;;5096364;28;20032;-79
2021/08/28 07:15:09;;;;;;;10.13;4.50;;;;;;;;;;5096308;28;20028;-78
2021/08/28 07:17:35;;;;;;;7.93;4.15;;;;;;;;;;5096111;28;20085;-80
2021/08/28 07:20:01;;;;;;;9.40;4.05;;;;;;;;;;5096896;28;20028;-80
2021/08/28 07:22:27;;;;;;;10.15;4.70;;;;;;;;;;5096224;28;20031;-79
2021/08/28 07:24:53;;;;;;;9.60;4.95;;;;;;;;;;5096278;28;20028;-80
2021/08/28 07:27:23;;;;;;;9.73;4.30;;;;;;;;;;5096455;28;20134;-80
2021/08/28 07:29:49;;;;;;;11.15;4.45;;;;;;;;;;5096139;28;20073;-79
2021/08/28 07:32:15;;;;;;;9.80;4.57;;;;;;;;;;5096022;28;20395;-80
2021/08/28 07:34:41;;;;;;;10.07;4.50;;;;;;;;;;5096050;28;20099;-80
2021/08/28 07:37:07;;;;;;;7.80;4.25;;;;;;;;;;5096215;28;20494;-80
2021/08/28 07:39:33;;;;;;;8.93;4.70;;;;;;;;;;5077816;28;20062;-78
2021/08/28 07:41:59;;;;;;;10.10;4.35;;;;;;;;;;5077736;28;20387;-80
2021/08/28 07:44:25;;;;;;;9.57;4.32;;;;;;;;;;5095853;28;20598;-80
2021/08/28 07:46:53;;;;;;;9.23;4.70;;;;;;;;;;5095812;28;20141;-80
2021/08/28 07:49:19;;;;;;;10.68;4.00;;;;;;;;;;5095776;28;20042;-79
2021/08/28 07:51:45;;;;;;;12.45;5.38;;;;;;;;;;5095916;28;20085;-80
2021/08/28 07:54:11;;;;;;;9.98;3.72;;;;;;;;;;5095647;28;20058;-80
2021/08/28 07:56:37;;;;;;;8.93;3.90;;;;;;;;;;5095596;28;20066;-80
2021/08/28 07:59:03;;;;;;;9.48;4.07;;;;;;;;;;5095612;28;20051;-80
2021/08/28 08:01:30;;;;;;;10.48;4.38;;;;;;;;;;5095531;28;20476;-79
2021/08/28 08:03:55;;;;;;;7.60;3.83;;;;;;;;;;5095481;28;20488;-79
2021/08/28 08:06:22;;;;;;;7.68;3.90;;;;;;;;;;5095454;28;20140;-80
2021/08/28 08:08:48;;;;;;;8.75;3.85;;;;;;;;;;5095923;28;20051;-80
2021/08/28 08:11:17;;;;;;;9.80;4.03;;;;;;;;;;5095517;28;20020;-80
2021/08/28 08:13:45;;;;;;;7.50;3.75;;;;;;;;;;5094159;28;20049;-87
2021/08/28 08:16:12;;;;;;;10.40;4.10;;;;;;;;;;5076937;28;20020;-88
2021/08/28 08:18:38;;;;;;;7.80;2.92;;;;;;;;;;5095104;28;20048;-75
2021/08/28 08:21:04;;;;;;;8.35;3.00;;;;;;;;;;5095746;28;20372;-79
2021/08/28 08:23:30;;;;;;;11.48;3.88;;;;;;;;;;5094987;28;20097;-81
2021/08/28 08:25:56;;;;;;;10.77;3.53;;;;;;;;;;5076878;28;20024;-79
2021/08/28 08:28:22;;;;;;;10.30;3.58;;;;;;;;;;5095513;28;20050;-78
2021/08/28 08:30:49;;;;;;;12.43;3.53;;;;;;;;;;5094783;28;20054;-77
2021/08/28 08:33:15;;;;;;;9.93;2.90;;;;;;;;;;5095122;28;20028;-79
2021/08/28 08:35:41;;;;;;;8.50;2.85;;;;;;;;;;5095036;28;20430;-77
2021/08/28 08:38:08;;;;;;;6.68;2.90;;;;;;;;;;5076816;28;20031;-79
2021/08/28 08:40:34;;;;;;;8.82;2.75;;;;;;;;;;5094801;28;20042;-79
2021/08/28 08:43:01;;;;;;;9.88;3.30;;;;;;;;;;5094768;28;20129;-81
2021/08/28 08:45:27;;;;;;;9.93;2.78;;;;;;;;;;5094679;28;20424;-78
2021/08/28 08:47:54;;;;;;;9.32;2.60;;;;;;;;;;5094616;28;20104;-80
2021/08/28 08:50:21;;;;;;;8.82;2.90;;;;;;;;;;5076383;28;20062;-80
2021/08/28 08:52:49;;;;;;;7.75;2.40;;;;;;;;;;5094738;28;20028;-81
2021/08/28 08:55:15;;;;;;;7.32;2.55;;;;;;;;;;5094472;28;20027;-80
2021/08/28 08:57:42;;;;;;;12.82;2.97;;;;;;;;;;5094435;28;20388;-79
2021/08/28 09:00:08;;;;;;;7.28;2.55;;;;;;;;;;5094379;28;20023;-81
2021/08/28 09:02:35;;;;;;;6.88;2.47;;;;;;;;;;5094540;28;20476;-78
2021/08/28 09:05:01;;;;;;;7.45;2.33;;;;;;;;;;5094480;28;20027;-78
2021/08/28 09:07:27;;;;;;;6.93;2.10;;;;;;;;;;5094421;28;20073;-79
2021/08/28 09:09:53;;;;;;;8.93;2.50;;;;;;;;;;5094519;28;20433;-80
2021/08/28 09:12:19;;;;;;;8.60;2.58;;;;;;;;;;5094148;28;20111;-78
2021/08/28 09:14:45;;;;;;;7.90;2.67;;;;;;;;;;5094969;28;20107;-81
2021/08/28 09:17:13;;;;;;;7.85;2.63;;;;;;;;;;5094396;28;20055;-78
2021/08/28 09:19:40;;;;;;;8.13;2.20;;;;;;;;;;5094998;28;20025;-76
2021/08/28 09:22:07;;;;;;;7.65;2.58;;;;;;;;;;5094761;28;20111;-80
2021/08/28 09:24:43;;;;;;;7.45;2.30;;;;;;;;;;5094712;28;20460;-76
2021/08/28 09:27:09;;;;;;;8.50;2.42;;;;;;;;;;5094891;28;20024;-78
2021/08/28 09:29:35;;;;;;;9.98;2.45;;;;;;;;;;5094585;28;20028;-81
2021/08/28 09:32:01;;;;;;;9.52;3.08;;;;;;;;;;5094176;28;20028;-75
2021/08/28 09:34:28;;;;;;;8.88;2.42;;;;;;;;;;5093916;28;20419;-77
2021/08/28 09:36:54;;;;;;;8.45;2.63;;;;;;;;;;5094078;28;20052;-75
2021/08/28 09:39:20;;;;;;;7.32;2.38;;;;;;;;;;5094516;28;20024;-76
2021/08/28 09:41:53;;;;;;;7.72;2.45;;;;;;;;;;5094321;28;20034;-77
2021/08/28 09:44:20;;;;;;;10.15;2.47;;;;;;;;;;5094243;28;20028;-79
2021/08/28 09:46:46;;;;;;;9.65;2.60;;;;;;;;;;5095635;28;20464;-78
2021/08/28 09:49:12;;;;;;;6.63;2.13;;;;;;;;;;5094442;28;20103;-75
2021/08/28 09:51:40;;;;;;;6.47;1.70;;;;;;;;;;5088563;28;20029;-76
2021/08/28 09:54:10;;;;;;;7.50;2.22;;;;;;;;;;5074067;28;20506;-75
2021/08/28 09:56:41;;;;;;;6.35;1.98;;;;;;;;;;5075154;28;20024;-74
2021/08/28 09:59:22;;;;;;;7.40;2.40;;;;;;;;;;5054855;28;20028;-75
2021/08/28 10:01:49;;;;;;;11.10;2.75;;;;;;;;;;5073717;28;20093;-75
2021/08/28 10:04:15;;;;;;;7.25;2.20;;;;;;;;;;5072086;28;20024;-74
2021/08/28 10:06:45;;;;;;;7.90;2.00;;;;;;;;;;5072897;28;20032;-74
2021/08/28 10:09:13;;;;;;;7.95;2.00;;;;;;;;;;5072702;28;20021;-75
2021/08/28 10:11:39;;;;;;;8.13;2.42;;;;;;;;;;5072661;28;20481;-75
2021/08/28 10:14:05;;;;;;;6.18;1.80;;;;;;;;;;5072827;28;20077;-75
2021/08/28 10:16:32;;;;;;;8.98;2.60;;;;;;;;;;5072665;28;20025;-75
2021/08/28 10:18:58;;;;;;;5.85;1.67;;;;;;;;;;5072904;28;20041;-74
2021/08/28 10:21:24;;;;;;;6.88;2.15;;;;;;;;;;5073641;28;20028;-74
2021/08/28 10:23:53;;;;;;;7.53;2.17;;;;;;;;;;5073365;28;20021;-74
2021/08/28 10:26:20;;;;;;;6.10;2.00;;;;;;;;;;5073050;28;20090;-74
2021/08/28 10:28:46;;;;;;;6.88;1.98;;;;;;;;;;5073128;28;20048;-74
2021/08/28 10:31:12;;;;;;;6.85;1.90;;;;;;;;;;5072954;28;20031;-74
2021/08/28 10:33:39;;;;;;;5.47;1.77;;;;;;;;;;5073360;28;20484;-74
2021/08/28 10:36:10;;;;;;;6.00;1.75;;;;;;;;;;5054995;28;20470;-74
2021/08/28 10:38:39;;;;;;;6.10;1.83;;;;;;;;;;5076289;28;20021;-75
2021/08/28 10:41:05;;;;;;;;;;;;;;;;;;5077576;28;20029;-73
2021/08/28 10:43:32;;;;;;;8.23;1.95;;;;;;;;;;5076825;28;19927;-74
2021/08/28 10:45:58;;;;;;;6.10;2.35;;;;;;;;;;5077163;28;20031;-74
2021/08/28 10:48:24;;;;;;;4.40;1.73;;;;;;;;;;5076673;28;20040;-74
2021/08/28 10:50:54;;;;;;;6.55;2.00;;;;;;;;;;5076622;28;20024;-73
2021/08/28 10:53:21;;;;;;;4.93;1.80;;;;;;;;;;5058462;28;20492;-74
2021/08/28 10:55:49;;;;;;;6.82;2.13;;;;;;;;;;5076579;28;20542;-74
2021/08/28 10:58:18;;;;;;;5.55;2.22;;;;;;;;;;5076540;28;20035;-74
2021/08/28 11:00:46;;;;;;;6.55;2.05;;;;;;;;;;5076480;28;20070;-74
2021/08/28 11:03:24;;;;;;;7.38;2.10;;;;;;;;;;5076414;28;20389;-74
2021/08/28 11:06:08;;;;;;;6.32;1.98;;;;;;;;;;5076913;28;20112;-74
2021/08/28 11:08:48;;;;;;;6.55;2.28;;;;;;;;;;5076285;28;20105;-73
2021/08/28 11:11:37;;;;;;;5.57;1.97;;;;;;;;;;5076211;28;20484;-74
2021/08/28 11:14:07;;;;;;;4.78;2.08;;;;;;;;;;5076895;28;20024;-73
2021/08/28 11:16:43;;;;;;;6.85;2.17;;;;;;;;;;5058169;28;20025;-73
2021/08/28 11:19:09;;;;;;;6.78;2.22;;;;;;;;;;5075762;28;20048;-74
2021/08/28 11:21:42;;;;;;;9.38;2.42;;;;;;;;;;5076289;28;20032;-74
2021/08/28 11:24:16;;;;;;;5.10;1.88;;;;;;;;;;5076053;28;20098;-73
2021/08/28 11:26:42;;;;;;;6.80;2.38;;;;;;;;;;5075922;28;20032;-73
2021/08/28 11:29:19;;;;;;;5.03;1.90;;;;;;;;;;5076202;28;20029;-74
2021/08/28 11:31:46;;;;;;;8.60;2.28;;;;;;;;;;5076102;28;20031;-73
2021/08/28 11:34:12;;;;;;;5.55;2.22;;;;;;;;;;5075831;28;20387;-73
2021/08/28 11:36:38;;;;;;;6.07;2.22;;;;;;;;;;5075818;28;20492;-74
2021/08/28 11:39:20;;;;;;;6.90;1.92;;;;;;;;;;5076033;28;20469;-73
2021/08/28 11:41:46;;;;;;;4.10;1.83;;;;;;;;;;5075697;28;20034;-74
2021/08/28 11:44:15;;;;;;;5.85;2.30;;;;;;;;;;5075692;28;20050;-74
2021/08/28 11:46:43;;;;;;;5.75;2.05;;;;;;;;;;5076145;28;20024;-73
2021/08/28 11:49:09;;;;;;;2.95;1.63;;;;;;;;;;5075854;28;20046;-72
2021/08/28 11:51:36;;;;;;;5.60;1.90;;;;;;;;;;5075767;28;20063;-74
2021/08/28 11:54:02;;;;;;;6.40;1.70;;;;;;;;;;5075780;28;20032;-74
2021/08/28 11:56:36;;;;;;;5.88;1.92;;;;;;;;;;5075414;28;20095;-73
2021/08/28 11:59:03;;;;;;;6.43;2.13;;;;;;;;;;5076027;28;20077;-73
2021/08/28 12:01:36;;;;;;;7.10;2.00;;;;;;;;;;5075344;28;20023;-73
2021/08/28 12:04:03;;;;;;;5.97;2.10;;;;;;;;;;5075882;28;20052;-73
2021/08/28 12:06:30;;;;;;;5.47;1.80;;;;;;;;;;5075274;28;20106;-74
2021/08/28 12:08:56;;;;;;;8.88;2.03;;;;;;;;;;5075783;28;20031;-74
2021/08/28 12:11:23;;;;;;;4.30;1.92;;;;;;;;;;5075040;28;20542;-73
2021/08/28 12:13:50;;;;;;;3.58;1.67;;;;;;;;;;5075338;28;20025;-73
2021/08/28 12:16:23;;;;;;;7.22;1.95;;;;;;;;;;5075208;28;20025;-73
2021/08/28 12:18:59;;;;;;;4.13;1.60;;;;;;;;;;5074757;28;20527;-73
2021/08/28 12:21:25;;;;;;;5.18;1.80;;;;;;;;;;5056766;28;20035;-73
2021/08/28 12:23:51;;;;;;;4.32;1.60;;;;;;;;;;5075054;28;20028;-74
2021/08/28 12:26:18;;;;;;;6.10;1.95;;;;;;;;;;5075000;28;20035;-73
2021/08/28 12:28:44;;;;;;;6.47;1.77;;;;;;;;;;5056933;28;20142;-73
2021/08/28 12:31:10;;;;;;;8.15;1.98;;;;;;;;;;5074728;28;20070;-73
2021/08/28 12:33:36;;;;;;;4.75;1.98;;;;;;;;;;5074705;28;20020;-74
2021/08/28 12:36:02;;;;;;;5.25;1.80;;;;;;;;;;5074656;28;20020;-73
2021/08/28 12:38:31;;;;;;;7.40;1.48;;;;;;;;;;5074634;28;20024;-73
2021/08/28 12:41:00;;;;;;;5.45;1.98;;;;;;;;;;5075101;28;20027;-73
2021/08/28 12:43:27;;;;;;;8.18;1.95;;;;;;;;;;5075036;28;20027;-73
2021/08/28 12:45:54;;;;;;;4.93;1.83;;;;;;;;;;5056453;28;20374;-74
2021/08/28 12:48:20;;;;;;;4.97;1.80;;;;;;;;;;5074357;28;20091;-73
2021/08/28 12:50:47;;;;;;;6.80;1.75;;;;;;;;;;5056453;28;20103;-74
2021/08/28 12:53:13;;;;;;;9.10;1.90;;;;;;;;;;5074470;28;20094;-73
2021/08/28 12:55:39;;;;;;;4.18;1.70;;;;;;;;;;5074230;28;20086;-73
2021/08/28 12:58:07;;;;;;;6.95;2.10;;;;;;;;;;5056216;28;20485;-74
2021/08/28 13:00:43;;;;;;;6.82;1.90;;;;;;;;;;5073625;28;20103;-73
2021/08/28 13:03:28;;;;;;;4.50;1.80;;;;;;;;;;5074633;28;20134;-73
2021/08/28 13:05:54;;;;;;;5.88;2.05;;;;;;;;;;5074307;28;20024;-73
2021/08/28 13:08:36;;;;;;;5.13;1.80;;;;;;;;;;5073980;28;20024;-73
2021/08/28 13:11:22;;;;;;;6.38;2.03;;;;;;;;;;5074143;28;20101;-74
2021/08/28 13:14:02;;;;;;;5.57;1.80;;;;;;;;;;5074163;28;20099;-73
2021/08/28 13:16:28;;;;;;;3.60;1.42;;;;;;;;;;5055804;28;20024;-74
2021/08/28 13:19:14;;;;;;;4.32;1.60;;;;;;;;;;5073438;28;20062;-74
2021/08/28 13:21:41;;;;;;;5.25;1.58;;;;;;;;;;5074375;28;20100;-73
2021/08/28 13:24:11;;;;;;;7.55;2.05;;;;;;;;;;5073733;28;20070;-73
2021/08/28 13:26:37;;;;;;;;;;;;;;;;;;5074703;28;20379;-73
2021/08/28 13:29:03;;;;;;;5.28;1.92;;;;;;;;;;5073690;28;19991;-73
2021/08/28 13:31:29;;;;;;;5.35;2.10;;;;;;;;;;5073542;28;20033;-74
2021/08/28 13:34:02;;;;;;;9.90;2.80;;;;;;;;;;5073565;28;20024;-73
2021/08/28 13:36:29;;;;;;;8.02;2.50;;;;;;;;;;5073842;28;20095;-74
2021/08/28 13:38:55;;;;;;;7.10;2.67;;;;;;;;;;5073797;28;20106;-73
2021/08/28 13:41:21;;;;;;;6.22;2.45;;;;;;;;;;5073503;28;20029;-74
2021/08/28 13:43:47;;;;;;;7.45;2.42;;;;;;;;;;5073445;28;20020;-74
2021/08/28 13:46:13;;;;;;;8.35;2.80;;;;;;;;;;5073417;28;20496;-73
2021/08/28 13:48:40;;;;;;;5.38;2.33;;;;;;;;;;5073398;28;20054;-73
2021/08/28 13:51:06;;;;;;;6.03;2.58;;;;;;;;;;5073564;28;20029;-73
2021/08/28 13:53:32;;;;;;;8.43;2.97;;;;;;;;;;5073853;28;20028;-74
2021/08/28 13:55:58;;;;;;;7.18;2.40;;;;;;;;;;5073281;28;20099;-74
2021/08/28 13:58:24;;;;;;;8.30;2.47;;;;;;;;;;5073318;28;20078;-74
2021/08/28 14:00:50;;;;;;;5.18;2.30;;;;;;;;;;5055273;28;20017;-73
2021/08/28 14:03:16;;;;;;;6.70;1.90;;;;;;;;;;5073238;28;20035;-74
2021/08/28 14:05:42;;;;;;;8.50;2.33;;;;;;;;;;5073455;28;20032;-74
2021/08/28 14:08:08;;;;;;;7.65;2.85;;;;;;;;;;5073404;28;20024;-73
2021/08/28 14:10:35;;;;;;;6.32;2.45;;;;;;;;;;5073156;28;20024;-73
2021/08/28 14:13:01;;;;;;;7.20;2.47;;;;;;;;;;5072333;28;20028;-73
2021/08/28 14:15:27;;;;;;;7.00;2.30;;;;;;;;;;5073170;28;20028;-73
2021/08/28 14:17:53;;;;;;;7.68;2.22;;;;;;;;;;5073373;28;20049;-73
2021/08/28 14:20:20;;;;;;;6.10;2.10;;;;;;;;;;5073475;28;20027;-74
2021/08/28 14:22:46;;;;;;;6.15;2.08;;;;;;;;;;5073155;28;20481;-75
2021/08/28 14:25:13;;;;;;;4.93;2.42;;;;;;;;;;5073563;28;20025;-73
2021/08/28 14:27:39;;;;;;;5.25;2.25;;;;;;;;;;5073383;28;20032;-73
2021/08/28 14:30:06;;;;;;;8.38;2.47;;;;;;;;;;5057731;28;20028;-74
2021/08/28 14:32:32;;;;;;;4.38;2.00;;;;;;;;;;5074043;28;20121;-73
2021/08/28 14:34:58;;;;;;;4.82;1.70;;;;;;;;;;5073570;28;20082;-74
2021/08/28 14:37:24;;;;;;;6.55;2.00;;;;;;;;;;5073189;28;20028;-73
2021/08/28 14:39:51;;;;;;;9.73;2.65;;;;;;;;;;5073281;28;20020;-74
2021/08/28 14:42:17;;;;;;;5.28;1.95;;;;;;;;;;5073220;28;20028;-73